UTDD

Dushanbe International Airport

Airport
ICAO code
UTDD
IATA Code
DYU
Summary
ICAO Region
EUR
ICAO Territory
Location

Dushanbe, Tajikistan,

Serving
Dushanbe
Elevation
2575 ft
Coordinates
38° 32' 36" N , 68° 49' 30" E
Metar
UTDD 181530Z 27003MPS 9999 FEW066CB 17/10 Q1010 R09/CLRD// TEMPO 27007MPS RMK QFE689/0919

Description

Dushanbe International Airport is an airport located in Dushanbe, the capital of Tajikistan.

Climatology

Dry-summer subtropical ”Mediterranean" climate (Köppen climate classification Csa) - characterized by hot, dry summers and mild winters. During the summer, subtropical high pressure cells dominate, making rainfall unlikely except for the occasional thunderstorm. In the winter, periodic storms bring rain (snow at higher elevations).

Runways

Designator Length Width Surface Rops
9/27 3100 45 ASP Yes/Yes

Airport map

Aerial View

SKYbrary Partners:

Safety knowledge contributed by: